createdAt,value
2022-09-09T12:44:34.314Z,92.49
2022-09-09T12:47:05.107Z,92.53
2022-09-09T12:49:40.272Z,94.71
2022-09-09T12:56:11.873Z,89.69
2022-09-09T13:02:00.575Z,90.06
2022-09-09T13:06:20.532Z,90.65
2022-09-09T13:10:58.686Z,91.56
2022-09-09T13:15:30.375Z,91.55
2022-09-09T13:19:54.916Z,92.14
2022-09-09T13:24:27.077Z,92.31
2022-09-09T13:31:38.771Z,89.69
2022-09-09T13:50:27.408Z,74.86
2022-09-09T13:54:41.171Z,75.26
2022-09-09T13:58:55.072Z,75.76
2022-09-09T14:03:09.252Z,79.21
2022-09-09T14:07:22.871Z,77.45
2022-09-09T14:11:35.843Z,81.75
2022-09-09T14:15:50.472Z,83.66
2022-09-09T14:20:10.892Z,83.64
2022-09-09T14:24:23.971Z,86.18
2022-09-09T14:28:54.721Z,88.08
2022-09-09T14:33:09.973Z,91.51
2022-09-09T14:37:23.022Z,91.93
2022-09-09T14:41:35.980Z,90.44
2022-09-09T14:45:49.884Z,90.19
2022-09-09T14:50:04.781Z,91.05
2022-09-09T14:54:27.777Z,91.88
2022-09-09T14:58:40.820Z,94.14
2022-09-09T15:02:55.277Z,96.30
2022-09-09T15:07:21.059Z,96.07
2022-09-09T15:11:40.534Z,95.55
2022-09-09T15:15:53.586Z,100.00
2022-09-09T15:20:10.224Z,98.79
2022-09-09T15:24:23.232Z,100.00
2022-09-09T15:28:39.053Z,99.18
2022-09-09T15:32:54.106Z,99.28
2022-09-09T15:37:08.587Z,95.79
2022-09-09T15:41:24.013Z,94.13
2022-09-09T15:45:38.503Z,86.17
2022-09-09T15:49:52.202Z,83.35
2022-09-09T15:54:06.134Z,79.68
2022-09-09T15:58:19.193Z,79.23
2022-09-09T16:02:32.497Z,79.03
2022-09-09T16:06:46.202Z,80.66
2022-09-09T16:11:12.107Z,83.76
2022-09-09T16:15:25.879Z,86.86
2022-09-09T16:19:39.084Z,85.25
2022-09-09T16:23:55.315Z,89.77
2022-09-09T16:28:08.282Z,90.43
2022-09-09T16:32:22.068Z,91.56
2022-09-09T16:36:37.653Z,90.79
2022-09-09T16:40:51.937Z,89.32
2022-09-09T16:45:05.273Z,86.49
2022-09-09T16:49:18.705Z,89.13
2022-09-09T16:53:44.400Z,88.15
2022-09-09T16:57:57.341Z,91.32
2022-09-09T17:02:10.546Z,94.03
2022-09-09T17:06:24.755Z,94.63
2022-09-09T17:10:43.618Z,96.79
2022-09-09T17:14:57.322Z,97.60
2022-09-09T17:19:11.281Z,100.00
2022-09-09T17:23:24.707Z,100.00
2022-09-09T17:27:39.506Z,100.00
2022-09-09T17:31:52.669Z,100.00
2022-09-09T17:36:10.395Z,100.00
2022-09-09T17:40:26.817Z,100.00
2022-09-09T17:44:40.742Z,100.00
2022-09-09T17:48:57.973Z,100.00
2022-09-09T17:53:12.358Z,100.00
2022-09-09T17:57:35.133Z,100.00
2022-09-09T18:01:51.647Z,100.00
2022-09-09T18:06:07.036Z,100.00
2022-09-09T18:10:19.994Z,100.00
2022-09-09T18:14:33.600Z,100.00
2022-09-09T18:18:47.808Z,100.00
2022-09-09T18:23:00.804Z,100.00
2022-09-09T18:27:14.144Z,100.00
2022-09-09T18:31:29.776Z,100.00
2022-09-09T18:35:42.888Z,100.00
2022-09-09T18:39:55.883Z,100.00
2022-09-09T18:44:14.403Z,100.00
2022-09-09T18:48:27.386Z,100.00
2022-09-09T18:52:40.340Z,100.00
2022-09-09T18:56:54.071Z,100.00
2022-09-09T19:01:13.743Z,100.00
2022-09-09T19:05:28.007Z,100.00
2022-09-09T19:09:41.033Z,100.00
2022-09-09T19:13:55.518Z,100.00
2022-09-09T19:18:08.823Z,100.00
2022-09-09T19:22:21.739Z,100.00
2022-09-09T19:26:41.311Z,100.00
2022-09-09T19:40:09.069Z,100.00
2022-09-09T19:44:21.487Z,100.00
2022-09-09T19:48:37.067Z,100.00
2022-09-09T19:52:49.561Z,100.00
2022-09-09T19:57:02.090Z,100.00
2022-09-09T20:01:19.871Z,100.00
2022-09-09T20:05:32.972Z,100.00
2022-09-09T20:09:45.348Z,100.00
2022-09-09T20:13:57.855Z,100.00
2022-09-09T20:18:10.314Z,100.00
2022-09-09T20:22:22.639Z,100.00
2022-09-09T20:26:38.332Z,100.00
2022-09-09T20:30:54.135Z,100.00
2022-09-09T20:35:06.773Z,100.00
2022-09-09T20:39:21.554Z,100.00
2022-09-09T20:43:33.910Z,100.00
2022-09-09T20:47:47.331Z,100.00
2022-09-09T20:51:59.695Z,100.00
2022-09-09T20:56:13.363Z,100.00
2022-09-09T21:00:25.871Z,100.00
2022-09-09T21:04:39.161Z,100.00
2022-09-09T21:08:52.207Z,100.00
2022-09-09T21:13:04.557Z,100.00
2022-09-09T21:17:18.306Z,100.00
2022-09-09T21:21:30.792Z,100.00
2022-09-09T21:25:43.635Z,100.00
2022-09-09T21:29:56.016Z,100.00
2022-09-09T21:34:10.543Z,100.00
2022-09-09T21:38:25.360Z,100.00
2022-09-09T21:42:37.939Z,100.00
2022-09-09T21:46:50.284Z,100.00
2022-09-09T21:51:08.637Z,100.00
2022-09-09T21:55:20.980Z,100.00
2022-09-09T21:59:34.649Z,100.00
2022-09-09T22:03:47.380Z,100.00
2022-09-09T22:07:59.809Z,100.00
2022-09-09T22:12:12.368Z,100.00
2022-09-09T22:16:26.230Z,100.00
2022-09-09T22:20:44.108Z,100.00
2022-09-09T22:24:56.472Z,100.00
2022-09-09T22:29:09.887Z,100.00
2022-09-09T22:33:22.319Z,100.00
2022-09-09T22:37:35.082Z,100.00
2022-09-09T22:41:48.898Z,100.00
2022-09-09T22:46:11.991Z,100.00
2022-09-09T22:50:24.808Z,100.00
2022-09-09T22:54:38.284Z,100.00
2022-09-09T22:58:57.240Z,100.00
2022-09-09T23:03:09.645Z,100.00
2022-09-09T23:07:24.194Z,100.00
2022-09-09T23:11:37.798Z,100.00
2022-09-09T23:15:50.502Z,100.00
2022-09-09T23:20:04.209Z,100.00
2022-09-09T23:24:18.418Z,100.00
2022-09-09T23:28:33.269Z,100.00
2022-09-09T23:32:47.739Z,100.00
2022-09-09T23:37:00.398Z,100.00
2022-09-09T23:41:15.517Z,100.00
2022-09-09T23:45:29.226Z,100.00
2022-09-09T23:49:41.688Z,100.00
2022-09-09T23:53:57.655Z,100.00
2022-09-09T23:58:10.894Z,100.00
